sensor_id;sensor_type;location;lat;lon;timestamp;temperature;humidity
20481;DHT22;10399;50.754;3.366;2024-03-02T00:01:40;7.80;99.90
20481;DHT22;10399;50.754;3.366;2024-03-02T00:04:08;7.80;99.90
20481;DHT22;10399;50.754;3.366;2024-03-02T00:06:35;7.70;99.90
20481;DHT22;10399;50.754;3.366;2024-03-02T00:09:04;7.70;99.90
20481;DHT22;10399;50.754;3.366;2024-03-02T00:11:34;7.70;99.90
20481;DHT22;10399;50.754;3.366;2024-03-02T00:14:03;7.80;99.90
20481;DHT22;10399;50.754;3.366;2024-03-02T00:16:31;7.80;99.90
20481;DHT22;10399;50.754;3.366;2024-03-02T00:19:03;7.70;99.90
20481;DHT22;10399;50.754;3.366;2024-03-02T00:21:31;7.80;99.90
20481;DHT22;10399;50.754;3.366;2024-03-02T00:23:59;7.80;99.90
20481;DHT22;10399;50.754;3.366;2024-03-02T00:26:29;7.80;99.90
20481;DHT22;10399;50.754;3.366;2024-03-02T00:28:56;7.80;99.90
20481;DHT22;10399;50.754;3.366;2024-03-02T00:31:24;7.80;99.90
20481;DHT22;10399;50.754;3.366;2024-03-02T00:33:52;7.70;99.90
20481;DHT22;10399;50.754;3.366;2024-03-02T00:36:25;7.80;99.90
20481;DHT22;10399;50.754;3.366;2024-03-02T00:38:55;7.70;99.90
20481;DHT22;10399;50.754;3.366;2024-03-02T00:41:25;7.70;99.90
20481;DHT22;10399;50.754;3.366;2024-03-02T00:44:07;7.90;99.90
20481;DHT22;10399;50.754;3.366;2024-03-02T00:46:40;7.90;99.90
20481;DHT22;10399;50.754;3.366;2024-03-02T00:51:38;7.90;99.90
20481;DHT22;10399;50.754;3.366;2024-03-02T00:54:13;7.90;99.90
20481;DHT22;10399;50.754;3.366;2024-03-02T00:56:45;7.90;99.90
20481;DHT22;10399;50.754;3.366;2024-03-02T00:59:12;7.80;99.90
20481;DHT22;10399;50.754;3.366;2024-03-02T01:01:39;7.80;99.90
20481;DHT22;10399;50.754;3.366;2024-03-02T01:04:06;7.80;99.90
20481;DHT22;10399;50.754;3.366;2024-03-02T01:06:34;7.80;99.90
20481;DHT22;10399;50.754;3.366;2024-03-02T01:09:01;7.80;99.90
20481;DHT22;10399;50.754;3.366;2024-03-02T01:11:29;7.70;99.90
20481;DHT22;10399;50.754;3.366;2024-03-02T01:13:59;7.60;99.90
20481;DHT22;10399;50.754;3.366;2024-03-02T01:16:26;7.60;99.90
20481;DHT22;10399;50.754;3.366;2024-03-02T01:18:55;7.70;99.90
20481;DHT22;10399;50.754;3.366;2024-03-02T01:21:26;7.60;99.90
20481;DHT22;10399;50.754;3.366;2024-03-02T01:23:57;7.70;99.90
20481;DHT22;10399;50.754;3.366;2024-03-02T01:26:26;7.70;99.90
20481;DHT22;10399;50.754;3.366;2024-03-02T01:28:53;7.70;99.90
20481;DHT22;10399;50.754;3.366;2024-03-02T01:31:22;7.70;99.90
20481;DHT22;10399;50.754;3.366;2024-03-02T01:33:50;7.50;99.90
20481;DHT22;10399;50.754;3.366;2024-03-02T01:36:17;7.60;99.90
20481;DHT22;10399;50.754;3.366;2024-03-02T01:38:45;7.50;99.90
20481;DHT22;10399;50.754;3.366;2024-03-02T01:41:13;7.50;99.90
20481;DHT22;10399;50.754;3.366;2024-03-02T01:43:40;7.60;99.90
20481;DHT22;10399;50.754;3.366;2024-03-02T01:46:09;7.50;99.90
20481;DHT22;10399;50.754;3.366;2024-03-02T01:48:38;7.50;99.90
20481;DHT22;10399;50.754;3.366;2024-03-02T01:51:07;7.50;99.90
20481;DHT22;10399;50.754;3.366;2024-03-02T01:53:37;7.50;99.90
20481;DHT22;10399;50.754;3.366;2024-03-02T01:56:08;7.60;99.90
20481;DHT22;10399;50.754;3.366;2024-03-02T01:58:35;7.40;99.90
20481;DHT22;10399;50.754;3.366;2024-03-02T02:01:04;7.40;99.90
20481;DHT22;10399;50.754;3.366;2024-03-02T02:03:33;7.50;99.90
20481;DHT22;10399;50.754;3.366;2024-03-02T02:06:01;7.30;99.90
20481;DHT22;10399;50.754;3.366;2024-03-02T02:08:31;7.40;99.90
20481;DHT22;10399;50.754;3.366;2024-03-02T02:10:59;7.40;99.90
20481;DHT22;10399;50.754;3.366;2024-03-02T02:13:28;7.40;99.90
20481;DHT22;10399;50.754;3.366;2024-03-02T02:15:55;7.40;99.90
20481;DHT22;10399;50.754;3.366;2024-03-02T02:18:23;7.50;99.90
20481;DHT22;10399;50.754;3.366;2024-03-02T02:20:53;7.50;99.90
20481;DHT22;10399;50.754;3.366;2024-03-02T02:23:20;7.60;99.90
20481;DHT22;10399;50.754;3.366;2024-03-02T02:25:49;7.50;99.90
20481;DHT22;10399;50.754;3.366;2024-03-02T02:28:18;7.50;99.90
20481;DHT22;10399;50.754;3.366;2024-03-02T02:30:46;7.60;99.90
20481;DHT22;10399;50.754;3.366;2024-03-02T02:33:14;7.70;99.90
20481;DHT22;10399;50.754;3.366;2024-03-02T02:35:41;7.60;99.90
20481;DHT22;10399;50.754;3.366;2024-03-02T02:38:08;7.60;99.90
20481;DHT22;10399;50.754;3.366;2024-03-02T02:40:35;7.50;99.90
20481;DHT22;10399;50.754;3.366;2024-03-02T02:43:02;7.50;99.90
20481;DHT22;10399;50.754;3.366;2024-03-02T02:45:29;7.30;99.90
20481;DHT22;10399;50.754;3.366;2024-03-02T02:47:57;7.30;99.90
20481;DHT22;10399;50.754;3.366;2024-03-02T02:50:24;7.30;99.90
20481;DHT22;10399;50.754;3.366;2024-03-02T02:52:51;7.30;99.90
20481;DHT22;10399;50.754;3.366;2024-03-02T02:55:18;7.30;99.90
20481;DHT22;10399;50.754;3.366;2024-03-02T02:57:45;7.30;99.90
20481;DHT22;10399;50.754;3.366;2024-03-02T03:00:14;7.30;99.90
20481;DHT22;10399;50.754;3.366;2024-03-02T03:02:49;7.20;99.90
20481;DHT22;10399;50.754;3.366;2024-03-02T03:05:18;7.30;99.90
20481;DHT22;10399;50.754;3.366;2024-03-02T03:07:45;7.40;99.90
20481;DHT22;10399;50.754;3.366;2024-03-02T03:10:13;7.40;99.90
20481;DHT22;10399;50.754;3.366;2024-03-02T03:12:41;7.40;99.90
20481;DHT22;10399;50.754;3.366;2024-03-02T03:15:11;7.20;99.90
20481;DHT22;10399;50.754;3.366;2024-03-02T03:17:41;7.20;99.90
20481;DHT22;10399;50.754;3.366;2024-03-02T03:20:09;7.30;99.90
20481;DHT22;10399;50.754;3.366;2024-03-02T03:22:42;7.30;99.90
20481;DHT22;10399;50.754;3.366;2024-03-02T03:25:09;7.20;99.90
20481;DHT22;10399;50.754;3.366;2024-03-02T03:27:36;7.30;99.90
20481;DHT22;10399;50.754;3.366;2024-03-02T03:30:04;7.30;99.90
20481;DHT22;10399;50.754;3.366;2024-03-02T03:32:33;7.40;99.90
20481;DHT22;10399;50.754;3.366;2024-03-02T03:35:00;7.40;99.90
20481;DHT22;10399;50.754;3.366;2024-03-02T03:37:27;7.30;99.90
20481;DHT22;10399;50.754;3.366;2024-03-02T03:40:03;7.30;99.90
20481;DHT22;10399;50.754;3.366;2024-03-02T03:42:40;7.30;99.90
20481;DHT22;10399;50.754;3.366;2024-03-02T03:45:08;7.20;99.90
20481;DHT22;10399;50.754;3.366;2024-03-02T03:47:35;7.10;99.90
20481;DHT22;10399;50.754;3.366;2024-03-02T03:50:03;7.20;99.90
20481;DHT22;10399;50.754;3.366;2024-03-02T03:52:33;7.20;99.90
20481;DHT22;10399;50.754;3.366;2024-03-02T03:55:00;7.20;99.90
20481;DHT22;10399;50.754;3.366;2024-03-02T03:57:28;7.20;99.90
20481;DHT22;10399;50.754;3.366;2024-03-02T03:59:55;7.30;99.90
20481;DHT22;10399;50.754;3.366;2024-03-02T04:02:22;7.30;99.90
20481;DHT22;10399;50.754;3.366;2024-03-02T04:04:48;7.30;99.90
20481;DHT22;10399;50.754;3.366;2024-03-02T04:07:15;7.30;99.90
20481;DHT22;10399;50.754;3.366;2024-03-02T04:09:42;7.30;99.90
20481;DHT22;10399;50.754;3.366;2024-03-02T04:12:10;7.30;99.90
20481;DHT22;10399;50.754;3.366;2024-03-02T04:14:37;7.30;99.90
20481;DHT22;10399;50.754;3.366;2024-03-02T04:17:04;7.30;99.90
20481;DHT22;10399;50.754;3.366;2024-03-02T04:19:31;7.30;99.90
20481;DHT22;10399;50.754;3.366;2024-03-02T04:21:59;7.40;99.90
20481;DHT22;10399;50.754;3.366;2024-03-02T04:24:34;7.30;99.90
20481;DHT22;10399;50.754;3.366;2024-03-02T04:27:01;7.30;99.90
20481;DHT22;10399;50.754;3.366;2024-03-02T04:29:29;7.20;99.90
20481;DHT22;10399;50.754;3.366;2024-03-02T04:31:56;7.20;99.90
20481;DHT22;10399;50.754;3.366;2024-03-02T04:34:23;7.30;99.90
20481;DHT22;10399;50.754;3.366;2024-03-02T04:36:50;7.10;99.90
20481;DHT22;10399;50.754;3.366;2024-03-02T04:39:20;7.10;99.90
20481;DHT22;10399;50.754;3.366;2024-03-02T04:41:47;7.20;99.90
20481;DHT22;10399;50.754;3.366;2024-03-02T04:44:15;7.10;99.90
20481;DHT22;10399;50.754;3.366;2024-03-02T04:46:42;7.00;99.90
20481;DHT22;10399;50.754;3.366;2024-03-02T04:49:11;7.00;99.90
20481;DHT22;10399;50.754;3.366;2024-03-02T04:51:38;7.30;99.90
20481;DHT22;10399;50.754;3.366;2024-03-02T04:54:05;7.20;99.90
20481;DHT22;10399;50.754;3.366;2024-03-02T04:56:33;7.20;99.90
20481;DHT22;10399;50.754;3.366;2024-03-02T04:59:06;7.10;99.90
20481;DHT22;10399;50.754;3.366;2024-03-02T05:01:33;7.00;99.90
20481;DHT22;10399;50.754;3.366;2024-03-02T05:04:00;7.00;99.90
20481;DHT22;10399;50.754;3.366;2024-03-02T05:06:27;6.90;99.90
20481;DHT22;10399;50.754;3.366;2024-03-02T05:08:55;6.90;99.90
20481;DHT22;10399;50.754;3.366;2024-03-02T05:11:22;6.90;99.90
20481;DHT22;10399;50.754;3.366;2024-03-02T05:14:04;6.90;99.90
20481;DHT22;10399;50.754;3.366;2024-03-02T05:16:35;6.80;99.90
20481;DHT22;10399;50.754;3.366;2024-03-02T05:19:03;6.80;99.90
20481;DHT22;10399;50.754;3.366;2024-03-02T05:21:33;6.90;99.90
20481;DHT22;10399;50.754;3.366;2024-03-02T05:24:01;6.90;99.90
20481;DHT22;10399;50.754;3.366;2024-03-02T05:26:28;7.00;99.90
20481;DHT22;10399;50.754;3.366;2024-03-02T05:28:55;6.90;99.90
20481;DHT22;10399;50.754;3.366;2024-03-02T05:31:22;6.90;99.90
20481;DHT22;10399;50.754;3.366;2024-03-02T05:33:49;6.90;99.90
20481;DHT22;10399;50.754;3.366;2024-03-02T05:36:21;6.90;99.90
20481;DHT22;10399;50.754;3.366;2024-03-02T05:38:48;6.90;99.90
20481;DHT22;10399;50.754;3.366;2024-03-02T05:41:15;7.00;99.90
20481;DHT22;10399;50.754;3.366;2024-03-02T05:43:42;7.10;99.90
20481;DHT22;10399;50.754;3.366;2024-03-02T05:46:09;7.00;99.90
20481;DHT22;10399;50.754;3.366;2024-03-02T05:48:42;6.90;99.90
20481;DHT22;10399;50.754;3.366;2024-03-02T05:51:09;7.00;99.90
20481;DHT22;10399;50.754;3.366;2024-03-02T05:53:36;6.90;99.90
20481;DHT22;10399;50.754;3.366;2024-03-02T05:56:05;6.90;99.90
20481;DHT22;10399;50.754;3.366;2024-03-02T05:58:33;6.80;99.90
20481;DHT22;10399;50.754;3.366;2024-03-02T06:01:26;6.80;99.90
20481;DHT22;10399;50.754;3.366;2024-03-02T06:03:56;6.80;99.90
20481;DHT22;10399;50.754;3.366;2024-03-02T06:06:23;6.80;99.90
20481;DHT22;10399;50.754;3.366;2024-03-02T06:08:51;6.70;99.90
20481;DHT22;10399;50.754;3.366;2024-03-02T06:11:19;6.70;99.90
20481;DHT22;10399;50.754;3.366;2024-03-02T06:13:46;6.80;99.90
20481;DHT22;10399;50.754;3.366;2024-03-02T06:16:13;6.80;99.90
20481;DHT22;10399;50.754;3.366;2024-03-02T06:18:40;6.80;99.90
20481;DHT22;10399;50.754;3.366;2024-03-02T06:21:07;6.80;99.90
20481;DHT22;10399;50.754;3.366;2024-03-02T06:23:34;6.80;99.90
20481;DHT22;10399;50.754;3.366;2024-03-02T06:26:02;7.00;99.90
20481;DHT22;10399;50.754;3.366;2024-03-02T06:28:29;6.70;99.90
20481;DHT22;10399;50.754;3.366;2024-03-02T06:30:56;6.70;99.90
20481;DHT22;10399;50.754;3.366;2024-03-02T06:33:23;6.80;99.90
20481;DHT22;10399;50.754;3.366;2024-03-02T06:35:50;6.80;99.90
20481;DHT22;10399;50.754;3.366;2024-03-02T06:38:17;6.70;99.90
20481;DHT22;10399;50.754;3.366;2024-03-02T06:40:44;6.70;99.90
20481;DHT22;10399;50.754;3.366;2024-03-02T06:43:11;6.70;99.90
20481;DHT22;10399;50.754;3.366;2024-03-02T06:45:38;6.80;99.90
20481;DHT22;10399;50.754;3.366;2024-03-02T06:48:06;6.90;99.90
20481;DHT22;10399;50.754;3.366;2024-03-02T06:50:33;6.80;99.90
20481;DHT22;10399;50.754;3.366;2024-03-02T06:53:00;7.00;99.90
20481;DHT22;10399;50.754;3.366;2024-03-02T06:55:27;7.00;99.90
20481;DHT22;10399;50.754;3.366;2024-03-02T06:57:54;6.90;99.90
20481;DHT22;10399;50.754;3.366;2024-03-02T07:00:21;7.00;99.90
20481;DHT22;10399;50.754;3.366;2024-03-02T07:02:47;7.10;99.90
20481;DHT22;10399;50.754;3.366;2024-03-02T07:05:15;7.00;99.90
20481;DHT22;10399;50.754;3.366;2024-03-02T07:07:41;7.00;99.90
20481;DHT22;10399;50.754;3.366;2024-03-02T07:10:09;6.90;99.90
20481;DHT22;10399;50.754;3.366;2024-03-02T07:12:36;7.00;99.90
20481;DHT22;10399;50.754;3.366;2024-03-02T07:15:06;7.00;99.90
20481;DHT22;10399;50.754;3.366;2024-03-02T07:17:43;7.20;99.90
20481;DHT22;10399;50.754;3.366;2024-03-02T07:20:14;7.10;99.90
20481;DHT22;10399;50.754;3.366;2024-03-02T07:22:47;7.20;99.90
20481;DHT22;10399;50.754;3.366;2024-03-02T07:25:14;7.30;99.90
20481;DHT22;10399;50.754;3.366;2024-03-02T07:27:44;7.40;99.90
20481;DHT22;10399;50.754;3.366;2024-03-02T07:30:17;7.30;99.90
20481;DHT22;10399;50.754;3.366;2024-03-02T07:33:03;7.60;99.90
20481;DHT22;10399;50.754;3.366;2024-03-02T07:35:36;7.60;99.90
20481;DHT22;10399;50.754;3.366;2024-03-02T07:38:09;7.60;99.90
20481;DHT22;10399;50.754;3.366;2024-03-02T07:44:03;7.70;99.90
20481;DHT22;10399;50.754;3.366;2024-03-02T07:46:31;7.90;99.90
20481;DHT22;10399;50.754;3.366;2024-03-02T07:48:58;7.80;99.90
20481;DHT22;10399;50.754;3.366;2024-03-02T07:51:25;7.90;99.90
20481;DHT22;10399;50.754;3.366;2024-03-02T07:53:53;8.10;99.90
20481;DHT22;10399;50.754;3.366;2024-03-02T07:56:20;8.20;99.90
20481;DHT22;10399;50.754;3.366;2024-03-02T07:58:49;8.30;99.90
20481;DHT22;10399;50.754;3.366;2024-03-02T08:01:16;8.30;99.90
20481;DHT22;10399;50.754;3.366;2024-03-02T08:03:44;8.30;99.90
20481;DHT22;10399;50.754;3.366;2024-03-02T08:06:17;8.20;99.90
20481;DHT22;10399;50.754;3.366;2024-03-02T08:08:44;8.20;99.90
20481;DHT22;10399;50.754;3.366;2024-03-02T08:11:25;8.20;99.90
20481;DHT22;10399;50.754;3.366;2024-03-02T08:14:08;8.30;99.90
20481;DHT22;10399;50.754;3.366;2024-03-02T08:16:35;8.50;99.90
20481;DHT22;10399;50.754;3.366;2024-03-02T08:19:02;8.50;99.90
20481;DHT22;10399;50.754;3.366;2024-03-02T08:21:30;8.60;99.90
20481;DHT22;10399;50.754;3.366;2024-03-02T08:23:59;8.70;99.90
20481;DHT22;10399;50.754;3.366;2024-03-02T08:26:26;8.70;99.90
20481;DHT22;10399;50.754;3.366;2024-03-02T08:28:56;8.90;99.90
20481;DHT22;10399;50.754;3.366;2024-03-02T08:31:23;8.90;99.90
20481;DHT22;10399;50.754;3.366;2024-03-02T08:33:50;8.70;99.90
20481;DHT22;10399;50.754;3.366;2024-03-02T08:36:17;8.60;99.90
20481;DHT22;10399;50.754;3.366;2024-03-02T08:38:44;8.60;99.90
20481;DHT22;10399;50.754;3.366;2024-03-02T08:41:12;8.50;99.90
20481;DHT22;10399;50.754;3.366;2024-03-02T08:43:41;8.50;99.90
20481;DHT22;10399;50.754;3.366;2024-03-02T08:46:09;8.60;99.90
20481;DHT22;10399;50.754;3.366;2024-03-02T08:48:36;8.60;99.90
20481;DHT22;10399;50.754;3.366;2024-03-02T08:51:03;8.60;99.90
20481;DHT22;10399;50.754;3.366;2024-03-02T08:53:33;8.70;99.90
20481;DHT22;10399;50.754;3.366;2024-03-02T08:56:00;8.60;99.90
20481;DHT22;10399;50.754;3.366;2024-03-02T08:58:28;8.70;99.90
20481;DHT22;10399;50.754;3.366;2024-03-02T09:00:56;8.80;99.90
20481;DHT22;10399;50.754;3.366;2024-03-02T09:03:23;8.90;99.90
20481;DHT22;10399;50.754;3.366;2024-03-02T09:05:50;9.00;99.90
20481;DHT22;10399;50.754;3.366;2024-03-02T09:08:16;9.00;99.90
20481;DHT22;10399;50.754;3.366;2024-03-02T09:10:46;9.10;99.90
20481;DHT22;10399;50.754;3.366;2024-03-02T09:13:13;9.10;99.90
20481;DHT22;10399;50.754;3.366;2024-03-02T09:15:41;9.10;99.90
20481;DHT22;10399;50.754;3.366;2024-03-02T09:18:08;9.10;99.90
20481;DHT22;10399;50.754;3.366;2024-03-02T09:20:35;9.20;99.90
20481;DHT22;10399;50.754;3.366;2024-03-02T09:23:02;9.40;99.90
20481;DHT22;10399;50.754;3.366;2024-03-02T09:25:29;9.60;99.90
20481;DHT22;10399;50.754;3.366;2024-03-02T09:27:56;9.80;99.90
20481;DHT22;10399;50.754;3.366;2024-03-02T09:30:23;10.20;99.90
20481;DHT22;10399;50.754;3.366;2024-03-02T09:32:50;10.20;99.90
20481;DHT22;10399;50.754;3.366;2024-03-02T09:35:18;10.20;99.90
20481;DHT22;10399;50.754;3.366;2024-03-02T09:37:45;10.30;99.90
20481;DHT22;10399;50.754;3.366;2024-03-02T09:40:13;10.40;99.90
20481;DHT22;10399;50.754;3.366;2024-03-02T09:42:41;10.40;99.90
20481;DHT22;10399;50.754;3.366;2024-03-02T09:45:09;10.30;99.90
20481;DHT22;10399;50.754;3.366;2024-03-02T09:47:37;10.50;99.90
20481;DHT22;10399;50.754;3.366;2024-03-02T09:50:05;10.50;99.90
20481;DHT22;10399;50.754;3.366;2024-03-02T09:52:33;10.70;99.90
20481;DHT22;10399;50.754;3.366;2024-03-02T09:55:00;10.80;99.90
20481;DHT22;10399;50.754;3.366;2024-03-02T09:57:27;10.90;99.90
20481;DHT22;10399;50.754;3.366;2024-03-02T09:59:54;10.90;99.90
20481;DHT22;10399;50.754;3.366;2024-03-02T10:02:21;11.00;99.90
20481;DHT22;10399;50.754;3.366;2024-03-02T10:04:49;11.20;99.90
20481;DHT22;10399;50.754;3.366;2024-03-02T10:07:17;11.50;99.90
20481;DHT22;10399;50.754;3.366;2024-03-02T10:09:47;11.60;99.90
20481;DHT22;10399;50.754;3.366;2024-03-02T10:12:15;11.40;99.90
20481;DHT22;10399;50.754;3.366;2024-03-02T10:14:43;11.30;99.90
20481;DHT22;10399;50.754;3.366;2024-03-02T10:17:13;11.10;99.90
20481;DHT22;10399;50.754;3.366;2024-03-02T10:19:40;11.00;99.90
20481;DHT22;10399;50.754;3.366;2024-03-02T10:22:09;10.80;99.90
20481;DHT22;10399;50.754;3.366;2024-03-02T10:24:40;10.70;99.90
20481;DHT22;10399;50.754;3.366;2024-03-02T10:27:26;10.90;99.90
20481;DHT22;10399;50.754;3.366;2024-03-02T10:29:53;10.80;99.90
20481;DHT22;10399;50.754;3.366;2024-03-02T10:32:22;10.70;99.90
20481;DHT22;10399;50.754;3.366;2024-03-02T10:34:50;10.70;99.90
20481;DHT22;10399;50.754;3.366;2024-03-02T10:37:17;10.70;99.90
20481;DHT22;10399;50.754;3.366;2024-03-02T10:39:46;10.80;99.90
20481;DHT22;10399;50.754;3.366;2024-03-02T10:42:14;10.80;99.90
20481;DHT22;10399;50.754;3.366;2024-03-02T10:44:42;10.80;99.90
20481;DHT22;10399;50.754;3.366;2024-03-02T10:47:12;10.80;99.90
20481;DHT22;10399;50.754;3.366;2024-03-02T10:49:42;10.80;99.90
20481;DHT22;10399;50.754;3.366;2024-03-02T10:52:10;10.70;99.90
20481;DHT22;10399;50.754;3.366;2024-03-02T10:54:37;10.70;99.90
20481;DHT22;10399;50.754;3.366;2024-03-02T10:57:07;10.70;99.90
20481;DHT22;10399;50.754;3.366;2024-03-02T10:59:51;10.60;99.90
20481;DHT22;10399;50.754;3.366;2024-03-02T11:02:21;10.70;99.90
20481;DHT22;10399;50.754;3.366;2024-03-02T11:04:49;10.70;99.90
20481;DHT22;10399;50.754;3.366;2024-03-02T11:07:18;10.90;99.90
20481;DHT22;10399;50.754;3.366;2024-03-02T11:10:00;10.80;99.90
20481;DHT22;10399;50.754;3.366;2024-03-02T11:12:36;10.90;99.90
20481;DHT22;10399;50.754;3.366;2024-03-02T11:15:10;10.90;99.90
20481;DHT22;10399;50.754;3.366;2024-03-02T11:17:40;10.90;99.90
20481;DHT22;10399;50.754;3.366;2024-03-02T11:20:08;10.90;99.90
20481;DHT22;10399;50.754;3.366;2024-03-02T11:22:36;10.70;99.90
20481;DHT22;10399;50.754;3.366;2024-03-02T11:25:04;10.80;99.90
20481;DHT22;10399;50.754;3.366;2024-03-02T11:33:02;10.70;99.90
20481;DHT22;10399;50.754;3.366;2024-03-02T11:35:44;10.70;99.90
20481;DHT22;10399;50.754;3.366;2024-03-02T11:38:15;10.70;99.90
20481;DHT22;10399;50.754;3.366;2024-03-02T11:40:42;10.80;99.90
20481;DHT22;10399;50.754;3.366;2024-03-02T11:43:10;10.80;99.90
20481;DHT22;10399;50.754;3.366;2024-03-02T11:45:38;10.90;99.90
20481;DHT22;10399;50.754;3.366;2024-03-02T11:48:14;10.80;99.90
20481;DHT22;10399;50.754;3.366;2024-03-02T11:50:50;10.70;99.90
20481;DHT22;10399;50.754;3.366;2024-03-02T11:53:18;10.90;99.90
20481;DHT22;10399;50.754;3.366;2024-03-02T11:55:45;11.00;99.90
20481;DHT22;10399;50.754;3.366;2024-03-02T11:58:15;11.00;99.90
20481;DHT22;10399;50.754;3.366;2024-03-02T12:00:51;10.90;99.90
20481;DHT22;10399;50.754;3.366;2024-03-02T12:03:24;10.80;99.90
20481;DHT22;10399;50.754;3.366;2024-03-02T12:05:54;10.70;99.90
20481;DHT22;10399;50.754;3.366;2024-03-02T12:08:22;10.70;99.90
20481;DHT22;10399;50.754;3.366;2024-03-02T12:11:01;10.70;99.90
20481;DHT22;10399;50.754;3.366;2024-03-02T12:13:30;10.70;99.90
20481;DHT22;10399;50.754;3.366;2024-03-02T12:15:58;10.70;99.90
20481;DHT22;10399;50.754;3.366;2024-03-02T12:18:25;10.80;99.90
20481;DHT22;10399;50.754;3.366;2024-03-02T12:20:53;10.90;99.90
20481;DHT22;10399;50.754;3.366;2024-03-02T12:23:25;10.90;99.90
20481;DHT22;10399;50.754;3.366;2024-03-02T12:25:52;10.80;99.90
20481;DHT22;10399;50.754;3.366;2024-03-02T12:28:20;10.90;99.90
20481;DHT22;10399;50.754;3.366;2024-03-02T12:30:47;10.90;99.90
20481;DHT22;10399;50.754;3.366;2024-03-02T12:33:15;10.90;99.90
20481;DHT22;10399;50.754;3.366;2024-03-02T12:35:43;10.90;99.90
20481;DHT22;10399;50.754;3.366;2024-03-02T12:38:10;10.90;99.90
20481;DHT22;10399;50.754;3.366;2024-03-02T12:40:38;10.80;99.90
20481;DHT22;10399;50.754;3.366;2024-03-02T12:43:05;10.90;99.90
20481;DHT22;10399;50.754;3.366;2024-03-02T12:45:34;10.60;99.90
20481;DHT22;10399;50.754;3.366;2024-03-02T12:48:03;10.50;99.90
20481;DHT22;10399;50.754;3.366;2024-03-02T12:50:31;10.60;99.90
20481;DHT22;10399;50.754;3.366;2024-03-02T12:52:58;10.50;99.90
20481;DHT22;10399;50.754;3.366;2024-03-02T12:55:25;10.60;99.90
20481;DHT22;10399;50.754;3.366;2024-03-02T12:57:55;10.50;99.90
20481;DHT22;10399;50.754;3.366;2024-03-02T13:00:22;10.50;99.90
20481;DHT22;10399;50.754;3.366;2024-03-02T13:02:50;10.40;99.90
20481;DHT22;10399;50.754;3.366;2024-03-02T13:05:19;10.50;99.90
20481;DHT22;10399;50.754;3.366;2024-03-02T13:07:48;10.60;99.90
20481;DHT22;10399;50.754;3.366;2024-03-02T13:10:16;10.60;99.90
20481;DHT22;10399;50.754;3.366;2024-03-02T13:12:43;10.70;99.90
20481;DHT22;10399;50.754;3.366;2024-03-02T13:15:10;10.70;99.90
20481;DHT22;10399;50.754;3.366;2024-03-02T13:17:45;10.70;99.90
20481;DHT22;10399;50.754;3.366;2024-03-02T13:20:16;10.70;99.90
20481;DHT22;10399;50.754;3.366;2024-03-02T13:22:45;10.80;99.90
20481;DHT22;10399;50.754;3.366;2024-03-02T13:25:11;10.80;99.90
20481;DHT22;10399;50.754;3.366;2024-03-02T13:27:39;10.90;99.90
20481;DHT22;10399;50.754;3.366;2024-03-02T13:30:07;10.80;99.90
20481;DHT22;10399;50.754;3.366;2024-03-02T13:32:36;10.80;99.90
20481;DHT22;10399;50.754;3.366;2024-03-02T13:35:03;10.90;99.90
20481;DHT22;10399;50.754;3.366;2024-03-02T13:37:30;11.00;99.90
20481;DHT22;10399;50.754;3.366;2024-03-02T13:39:57;11.20;99.90
20481;DHT22;10399;50.754;3.366;2024-03-02T13:42:24;11.30;99.90
20481;DHT22;10399;50.754;3.366;2024-03-02T13:44:52;11.40;99.90
20481;DHT22;10399;50.754;3.366;2024-03-02T13:47:19;11.40;99.90
20481;DHT22;10399;50.754;3.366;2024-03-02T13:49:48;11.40;99.90
20481;DHT22;10399;50.754;3.366;2024-03-02T13:52:16;11.30;99.90
20481;DHT22;10399;50.754;3.366;2024-03-02T13:54:47;11.40;99.90
20481;DHT22;10399;50.754;3.366;2024-03-02T13:57:14;11.30;99.90
20481;DHT22;10399;50.754;3.366;2024-03-02T13:59:42;11.30;99.90
20481;DHT22;10399;50.754;3.366;2024-03-02T14:02:11;11.40;99.90
20481;DHT22;10399;50.754;3.366;2024-03-02T14:04:39;11.50;99.90
20481;DHT22;10399;50.754;3.366;2024-03-02T14:07:06;11.50;99.90
20481;DHT22;10399;50.754;3.366;2024-03-02T14:09:35;11.50;99.90
20481;DHT22;10399;50.754;3.366;2024-03-02T14:12:03;11.50;99.90
20481;DHT22;10399;50.754;3.366;2024-03-02T14:14:30;11.50;99.90
20481;DHT22;10399;50.754;3.366;2024-03-02T14:16:57;11.60;99.90
20481;DHT22;10399;50.754;3.366;2024-03-02T14:19:30;11.60;99.90
20481;DHT22;10399;50.754;3.366;2024-03-02T14:21:58;11.50;99.90
20481;DHT22;10399;50.754;3.366;2024-03-02T14:24:25;11.60;99.90
20481;DHT22;10399;50.754;3.366;2024-03-02T14:26:53;11.70;99.90
20481;DHT22;10399;50.754;3.366;2024-03-02T14:29:31;11.80;99.90
20481;DHT22;10399;50.754;3.366;2024-03-02T14:32:03;11.90;99.90
20481;DHT22;10399;50.754;3.366;2024-03-02T14:34:31;11.90;99.90
20481;DHT22;10399;50.754;3.366;2024-03-02T14:36:58;11.90;99.90
20481;DHT22;10399;50.754;3.366;2024-03-02T14:39:28;12.00;99.90
20481;DHT22;10399;50.754;3.366;2024-03-02T14:41:56;11.90;99.90
20481;DHT22;10399;50.754;3.366;2024-03-02T14:44:23;11.90;99.90
20481;DHT22;10399;50.754;3.366;2024-03-02T14:46:50;11.80;99.90
20481;DHT22;10399;50.754;3.366;2024-03-02T14:49:17;11.80;99.90
20481;DHT22;10399;50.754;3.366;2024-03-02T14:51:58;11.90;99.90
20481;DHT22;10399;50.754;3.366;2024-03-02T14:54:25;12.00;99.90
20481;DHT22;10399;50.754;3.366;2024-03-02T14:56:52;11.90;99.90
20481;DHT22;10399;50.754;3.366;2024-03-02T14:59:19;11.80;99.90
20481;DHT22;10399;50.754;3.366;2024-03-02T15:01:46;11.80;99.90
20481;DHT22;10399;50.754;3.366;2024-03-02T15:04:15;12.00;99.90
20481;DHT22;10399;50.754;3.366;2024-03-02T15:06:47;11.90;99.90
20481;DHT22;10399;50.754;3.366;2024-03-02T15:09:14;12.00;99.90
20481;DHT22;10399;50.754;3.366;2024-03-02T15:11:45;12.00;99.90
20481;DHT22;10399;50.754;3.366;2024-03-02T15:14:12;12.10;99.90
20481;DHT22;10399;50.754;3.366;2024-03-02T15:16:39;12.00;99.90
20481;DHT22;10399;50.754;3.366;2024-03-02T15:19:06;12.00;99.90
20481;DHT22;10399;50.754;3.366;2024-03-02T15:21:33;12.00;99.90
20481;DHT22;10399;50.754;3.366;2024-03-02T15:24:01;11.80;99.90
20481;DHT22;10399;50.754;3.366;2024-03-02T15:26:27;11.90;99.90
20481;DHT22;10399;50.754;3.366;2024-03-02T15:28:54;11.90;99.90
20481;DHT22;10399;50.754;3.366;2024-03-02T15:31:23;11.90;99.90
20481;DHT22;10399;50.754;3.366;2024-03-02T15:33:50;11.90;99.90
20481;DHT22;10399;50.754;3.366;2024-03-02T15:36:18;12.00;99.90
20481;DHT22;10399;50.754;3.366;2024-03-02T15:38:44;12.00;99.90
20481;DHT22;10399;50.754;3.366;2024-03-02T15:41:12;11.90;99.90
20481;DHT22;10399;50.754;3.366;2024-03-02T15:43:39;11.90;99.90
20481;DHT22;10399;50.754;3.366;2024-03-02T15:46:09;11.80;99.90
20481;DHT22;10399;50.754;3.366;2024-03-02T15:48:36;11.70;99.90
20481;DHT22;10399;50.754;3.366;2024-03-02T15:51:04;11.50;99.90
20481;DHT22;10399;50.754;3.366;2024-03-02T15:53:33;11.00;99.90
20481;DHT22;10399;50.754;3.366;2024-03-02T15:56:00;10.90;99.90
20481;DHT22;10399;50.754;3.366;2024-03-02T15:58:27;10.70;99.90
20481;DHT22;10399;50.754;3.366;2024-03-02T16:00:54;10.80;99.90